Pagrindinis puslapis
METAR-TAF:

METAR-TAF

Oro uostai :

Tanana, Aliaska, Jungtinės Amerikos Valstijos

platuma: 65-10N, ilguma: 152-06W, Aukštis: 69 m

Dabartinis oras

Ataskaita buvo paskelbta 57 minutes, ne 03:52 UTC
Vėjas 6 kt iš Rytų
Temperatūra -23°C
Drėgmė 52%
Slėgis 1019 hPa
Matomumas: 16.1 km
Su prošvaistėmis ne aukštis 6500 ft
Apsiniaukę ne aukštis 9000 ft

METAR: PATA 170352Z 09006KT 10SM BKN065 OVC090 M23/M30 A3008 RMK SLP198 T12331300 VIA AUTODIAL

Laikas: 19:49 (04:49 UTC)

Prognozė

Ataskaita buvo paskelbta 5 valandos ir 11 minutes, ne 23:38 UTC
Prognozė galioja nuo 17 metu 00 UTC su 17 metu 24 UTC
Vėjas 10 kt iš Rytų
Matomumas: 10 km
Išsisklaidę debesys ne aukštis 4000 ft
Su prošvaistėmis ne aukštis 8000 ft
Su prošvaistėmis ne aukštis 11000 ft

TAF: PATA 162338Z 1700/1724 08010KT P6SM SCT040 BKN080 BKN110

Orai ataskaitas ir orų prognozės (METAR, TAF).

turimą stotys yra geltonos ir raudonos taškus žemėlapyje.

Perkelti pele per norėdami pamatyti stoties vardą.

Tada spustelėkite, norėdami matyti oro stebėjimo ir prognozės.

Norėdami pakeisti žemėlapį: spustelėkite ant žalios mygtukų su juodo kryžiaus žemyn,; žalią mygtuką su brūkšneliu, jei norite nutolinti; arba žalių rodyklių gretimoms žemėlapius.


METAR-TAF: